Time,TemperatureF,DewpointF,PressureIn,WindDirection,WindDirectionDegrees,WindSpeedMPH,WindSpeedGustMPH,Humidity,HourlyPrecipIn,Conditions,Clouds,dailyrainin,SoftwareType,DateUTC
2013-04-30 00:00:00,75.0,72.0,29.96,South,170,22.0,23.0,90,-99.99,,,-99.99,,2013-04-30 04:00:00,
2013-04-30 00:22:00,75.0,72.0,29.96,South,170,22.0,23.0,90,-99.99,,,-99.99,,2013-04-30 04:22:00,
2013-04-30 00:32:00,75.0,72.0,29.96,South,170,22.0,23.0,90,-99.99,,,-99.99,,2013-04-30 04:32:00,
2013-04-30 00:42:00,75.0,72.0,29.96,South,170,22.0,23.0,90,-99.99,,,-99.99,,2013-04-30 04:42:00,
2013-04-30 00:52:00,75.0,72.0,29.96,South,170,22.0,23.0,90,-99.99,,,-99.99,,2013-04-30 04:52:00,
2013-04-30 01:00:00,77.0,71.0,29.96,SSE,160,15.0,16.0,82,-99.99,,,-99.99,,2013-04-30 05:00:00,
2013-04-30 01:21:00,77.0,71.0,29.96,SSE,160,15.0,16.0,82,-99.99,,,-99.99,,2013-04-30 05:21:00,
2013-04-30 01:31:00,77.0,71.0,29.96,SSE,160,15.0,16.0,82,-99.99,,,-99.99,,2013-04-30 05:31:00,
2013-04-30 01:42:00,77.0,71.0,29.96,SSE,160,15.0,16.0,82,-99.99,,,-99.99,,2013-04-30 05:42:00,
2013-04-30 01:51:00,77.0,71.0,29.96,SSE,160,15.0,16.0,82,-99.99,,,-99.99,,2013-04-30 05:51:00,
2013-04-30 02:21:00,79.0,75.0,29.95,SE,140,20.0,21.0,89,-99.99,,,-99.99,,2013-04-30 06:21:00,
2013-04-30 02:31:00,79.0,75.0,29.95,SE,140,20.0,21.0,89,-99.99,,,-99.99,,2013-04-30 06:31:00,
2013-04-30 03:00:00,79.0,76.0,29.93,SE,140,21.0,23.0,90,-99.99,,,-99.99,,2013-04-30 07:00:00,
2013-04-30 03:21:00,79.0,76.0,29.93,SE,140,21.0,23.0,90,-99.99,,,-99.99,,2013-04-30 07:21:00,
2013-04-30 03:31:00,79.0,76.0,29.93,SE,140,21.0,23.0,90,-99.99,,,-99.99,,2013-04-30 07:31:00,
2013-04-30 03:41:00,79.0,76.0,29.93,SE,140,21.0,23.0,90,-99.99,,,-99.99,,2013-04-30 07:41:00,
2013-04-30 03:52:00,79.0,76.0,29.93,SE,140,21.0,23.0,90,-99.99,,,-99.99,,2013-04-30 07:52:00,
2013-04-30 04:00:00,79.0,74.0,29.92,SSE,160,24.0,25.0,86,-99.99,,,-99.99,,2013-04-30 08:00:00,
2013-04-30 04:21:00,79.0,74.0,29.92,SSE,160,24.0,25.0,86,-99.99,,,-99.99,,2013-04-30 08:21:00,
2013-04-30 04:31:00,79.0,74.0,29.92,SSE,160,24.0,25.0,86,-99.99,,,-99.99,,2013-04-30 08:31:00,
2013-04-30 04:41:00,79.0,74.0,29.92,SSE,160,24.0,25.0,86,-99.99,,,-99.99,,2013-04-30 08:41:00,
2013-04-30 04:51:00,79.0,74.0,29.92,SSE,160,24.0,25.0,86,-99.99,,,-99.99,,2013-04-30 08:51:00,
2013-04-30 05:00:00,78.0,76.0,29.93,SSE,160,20.0,21.0,91,-99.99,,,-99.99,,2013-04-30 09:00:00,
2013-04-30 05:21:00,78.0,76.0,29.93,SSE,160,20.0,21.0,91,-99.99,,,-99.99,,2013-04-30 09:21:00,
2013-04-30 05:32:00,78.0,76.0,29.93,SSE,160,20.0,21.0,91,-99.99,,,-99.99,,2013-04-30 09:32:00,
2013-04-30 05:42:00,78.0,76.0,29.93,SSE,160,20.0,21.0,91,-99.99,,,-99.99,,2013-04-30 09:42:00,
2013-04-30 05:52:00,78.0,76.0,29.93,SSE,160,20.0,21.0,91,-99.99,,,-99.99,,2013-04-30 09:52:00,
2013-04-30 06:00:00,79.0,76.0,29.93,SSE,160,22.0,23.0,90,-99.99,,,-99.99,,2013-04-30 10:00:00,
2013-04-30 06:22:00,79.0,76.0,29.93,SSE,160,22.0,23.0,90,-99.99,,,-99.99,,2013-04-30 10:22:00,
2013-04-30 06:32:00,79.0,76.0,29.93,SSE,160,22.0,23.0,90,-99.99,,,-99.99,,2013-04-30 10:32:00,
2013-04-30 06:41:00,79.0,76.0,29.93,SSE,160,22.0,23.0,90,-99.99,,,-99.99,,2013-04-30 10:41:00,
2013-04-30 06:52:00,79.0,76.0,29.93,SSE,160,22.0,23.0,90,-99.99,,,-99.99,,2013-04-30 10:52:00,
2013-04-30 07:00:00,79.0,75.0,29.95,SSE,160,20.0,21.0,88,-99.99,,,-99.99,,2013-04-30 11:00:00,
2013-04-30 07:21:00,79.0,75.0,29.95,SSE,160,20.0,21.0,88,-99.99,,,-99.99,,2013-04-30 11:21:00,
2013-04-30 07:31:00,79.0,75.0,29.95,SSE,160,20.0,21.0,88,-99.99,,,-99.99,,2013-04-30 11:31:00,
2013-04-30 07:42:00,79.0,75.0,29.95,SSE,160,20.0,21.0,88,-99.99,,,-99.99,,2013-04-30 11:42:00,
2013-04-30 07:51:00,79.0,75.0,29.95,SSE,160,20.0,21.0,88,-99.99,,,-99.99,,2013-04-30 11:51:00,
2013-04-30 08:00:00,79.0,74.0,29.96,SSE,160,22.0,22.0,84,-99.99,,,-99.99,,2013-04-30 12:00:00,
2013-04-30 08:21:00,79.0,74.0,29.96,SSE,160,22.0,22.0,84,-99.99,,,-99.99,,2013-04-30 12:21:00,
2013-04-30 08:31:00,79.0,74.0,29.96,SSE,160,22.0,22.0,84,-99.99,,,-99.99,,2013-04-30 12:31:00,
2013-04-30 08:41:00,79.0,74.0,29.96,SSE,160,22.0,22.0,84,-99.99,,,-99.99,,2013-04-30 12:41:00,
2013-04-30 08:51:00,79.0,74.0,29.96,SSE,160,22.0,22.0,84,-99.99,,,-99.99,,2013-04-30 12:51:00,
2013-04-30 09:00:00,80.0,75.0,29.97,South,170,18.0,20.0,86,-99.99,,,-99.99,,2013-04-30 13:00:00,
2013-04-30 09:21:00,80.0,75.0,29.97,South,170,18.0,20.0,86,-99.99,,,-99.99,,2013-04-30 13:21:00,
2013-04-30 09:31:00,80.0,75.0,29.97,South,170,18.0,20.0,86,-99.99,,,-99.99,,2013-04-30 13:31:00,
2013-04-30 09:41:00,80.0,75.0,29.97,South,170,18.0,20.0,86,-99.99,,,-99.99,,2013-04-30 13:41:00,
2013-04-30 09:51:00,80.0,75.0,29.97,South,170,18.0,20.0,86,-99.99,,,-99.99,,2013-04-30 13:51:00,
2013-04-30 10:00:00,80.0,75.0,29.99,South,170,18.0,20.0,84,-99.99,,,-99.99,,2013-04-30 14:00:00,
2013-04-30 10:21:00,80.0,75.0,29.99,South,170,18.0,20.0,84,-99.99,,,-99.99,,2013-04-30 14:21:00,
2013-04-30 10:31:00,80.0,75.0,29.99,South,170,18.0,20.0,84,-99.99,,,-99.99,,2013-04-30 14:31:00,
2013-04-30 10:41:00,80.0,75.0,29.99,South,170,18.0,20.0,84,-99.99,,,-99.99,,2013-04-30 14:41:00,
2013-04-30 10:51:00,80.0,75.0,29.99,South,170,18.0,20.0,84,-99.99,,,-99.99,,2013-04-30 14:51:00,
2013-04-30 11:00:00,80.0,70.0,29.99,South,170,17.0,18.0,70,-99.99,,,-99.99,,2013-04-30 15:00:00,
2013-04-30 11:21:00,80.0,70.0,29.99,South,170,17.0,18.0,70,-99.99,,,-99.99,,2013-04-30 15:21:00,
2013-04-30 11:32:00,80.0,70.0,29.99,South,170,17.0,18.0,70,-99.99,,,-99.99,,2013-04-30 15:32:00,
2013-04-30 11:42:00,80.0,70.0,29.99,South,170,17.0,18.0,70,-99.99,,,-99.99,,2013-04-30 15:42:00,
2013-04-30 11:52:00,80.0,70.0,29.99,South,170,17.0,18.0,70,-99.99,,,-99.99,,2013-04-30 15:52:00,
2013-04-30 12:00:00,80.0,71.0,29.99,South,180,13.0,15.0,73,-99.99,,,-99.99,,2013-04-30 16:00:00,
2013-04-30 12:22:00,80.0,71.0,29.99,South,180,13.0,15.0,73,-99.99,,,-99.99,,2013-04-30 16:22:00,
2013-04-30 12:32:00,80.0,71.0,29.99,South,180,13.0,15.0,73,-99.99,,,-99.99,,2013-04-30 16:32:00,
2013-04-30 12:42:00,80.0,71.0,29.99,South,180,13.0,15.0,73,-99.99,,,-99.99,,2013-04-30 16:42:00,
2013-04-30 12:52:00,80.0,71.0,29.99,South,180,13.0,15.0,73,-99.99,,,-99.99,,2013-04-30 16:52:00,
2013-04-30 13:00:00,80.0,74.0,29.97,South,170,15.0,16.0,82,-99.99,,,-99.99,,2013-04-30 17:00:00,
2013-04-30 13:22:00,80.0,74.0,29.97,South,170,15.0,16.0,82,-99.99,,,-99.99,,2013-04-30 17:22:00,
2013-04-30 13:32:00,80.0,74.0,29.97,South,170,15.0,16.0,82,-99.99,,,-99.99,,2013-04-30 17:32:00,
2013-04-30 13:41:00,80.0,74.0,29.97,South,170,15.0,16.0,82,-99.99,,,-99.99,,2013-04-30 17:41:00,
2013-04-30 13:52:00,80.0,74.0,29.97,South,170,15.0,16.0,82,-99.99,,,-99.99,,2013-04-30 17:52:00,
2013-04-30 14:00:00,81.0,76.0,29.97,South,180,13.0,14.0,84,-99.99,,,-99.99,,2013-04-30 18:00:00,
2013-04-30 14:22:00,81.0,76.0,29.97,South,180,13.0,14.0,84,-99.99,,,-99.99,,2013-04-30 18:22:00,
2013-04-30 14:32:00,81.0,76.0,29.97,South,180,13.0,14.0,84,-99.99,,,-99.99,,2013-04-30 18:32:00,
2013-04-30 14:41:00,81.0,76.0,29.97,South,180,13.0,14.0,84,-99.99,,,-99.99,,2013-04-30 18:41:00,
2013-04-30 14:51:00,81.0,76.0,29.97,South,180,13.0,14.0,84,-99.99,,,-99.99,,2013-04-30 18:51:00,
2013-04-30 15:00:00,81.0,77.0,29.96,SSE,160,11.0,11.0,86,-99.99,,,-99.99,,2013-04-30 19:00:00,
2013-04-30 15:21:00,81.0,77.0,29.96,SSE,160,11.0,11.0,86,-99.99,,,-99.99,,2013-04-30 19:21:00,
2013-04-30 15:31:00,81.0,77.0,29.96,SSE,160,11.0,11.0,86,-99.99,,,-99.99,,2013-04-30 19:31:00,
2013-04-30 15:41:00,81.0,77.0,29.96,SSE,160,11.0,11.0,86,-99.99,,,-99.99,,2013-04-30 19:41:00,
2013-04-30 15:52:00,81.0,77.0,29.96,SSE,160,11.0,11.0,86,-99.99,,,-99.99,,2013-04-30 19:52:00,
2013-04-30 16:00:00,81.0,76.0,29.94,South,170,11.0,13.0,84,-99.99,,,-99.99,,2013-04-30 20:00:00,
2013-04-30 16:21:00,81.0,76.0,29.94,South,170,11.0,13.0,84,-99.99,,,-99.99,,2013-04-30 20:21:00,
2013-04-30 16:32:00,81.0,76.0,29.94,South,170,11.0,13.0,84,-99.99,,,-99.99,,2013-04-30 20:32:00,
2013-04-30 16:42:00,81.0,76.0,29.94,South,170,11.0,13.0,84,-99.99,,,-99.99,,2013-04-30 20:42:00,
2013-04-30 16:52:00,81.0,76.0,29.94,South,170,11.0,13.0,84,-99.99,,,-99.99,,2013-04-30 20:52:00,
2013-04-30 17:00:00,82.0,76.0,29.95,South,170,10.0,11.0,83,-99.99,,,-99.99,,2013-04-30 21:00:00,
2013-04-30 17:21:00,82.0,76.0,29.95,South,170,10.0,11.0,83,-99.99,,,-99.99,,2013-04-30 21:21:00,
2013-04-30 17:32:00,82.0,76.0,29.95,South,170,10.0,11.0,83,-99.99,,,-99.99,,2013-04-30 21:32:00,
2013-04-30 17:42:00,82.0,76.0,29.95,South,170,10.0,11.0,83,-99.99,,,-99.99,,2013-04-30 21:42:00,
2013-04-30 17:52:00,82.0,76.0,29.95,South,170,10.0,11.0,83,-99.99,,,-99.99,,2013-04-30 21:52:00,
2013-04-30 18:00:00,82.0,76.0,29.94,ESE,120,9.0,10.0,81,-99.99,,,-99.99,,2013-04-30 22:00:00,
2013-04-30 18:22:00,82.0,76.0,29.94,ESE,120,9.0,10.0,81,-99.99,,,-99.99,,2013-04-30 22:22:00,
2013-04-30 18:32:00,82.0,76.0,29.94,ESE,120,9.0,10.0,81,-99.99,,,-99.99,,2013-04-30 22:32:00,
2013-04-30 18:41:00,82.0,76.0,29.94,ESE,120,9.0,10.0,81,-99.99,,,-99.99,,2013-04-30 22:41:00,
2013-04-30 18:52:00,82.0,76.0,29.94,ESE,120,9.0,10.0,81,-99.99,,,-99.99,,2013-04-30 22:52:00,
2013-04-30 19:00:00,81.0,75.0,29.96,ESE,110,10.0,11.0,82,-99.99,,,-99.99,,2013-04-30 23:00:00,
2013-04-30 19:21:00,81.0,75.0,29.96,ESE,110,10.0,11.0,82,-99.99,,,-99.99,,2013-04-30 23:21:00,
2013-04-30 19:32:00,81.0,75.0,29.96,ESE,110,10.0,11.0,82,-99.99,,,-99.99,,2013-04-30 23:32:00,
2013-04-30 19:42:00,81.0,75.0,29.96,ESE,110,10.0,11.0,82,-99.99,,,-99.99,,2013-04-30 23:42:00,
2013-04-30 19:52:00,81.0,75.0,29.96,ESE,110,10.0,11.0,82,-99.99,,,-99.99,,2013-04-30 23:52:00,
2013-04-30 20:00:00,80.0,75.0,29.97,East,100,11.0,13.0,86,-99.99,,,-99.99,,2013-05-01 00:00:00,
2013-04-30 20:21:00,80.0,75.0,29.97,East,100,11.0,13.0,86,-99.99,,,-99.99,,2013-05-01 00:21:00,
2013-04-30 20:31:00,80.0,75.0,29.97,East,100,11.0,13.0,86,-99.99,,,-99.99,,2013-05-01 00:31:00,
2013-04-30 20:42:00,80.0,75.0,29.97,East,100,11.0,13.0,86,-99.99,,,-99.99,,2013-05-01 00:42:00,
2013-04-30 20:51:00,80.0,75.0,29.97,East,100,11.0,13.0,86,-99.99,,,-99.99,,2013-05-01 00:51:00,
2013-04-30 21:00:00,79.0,74.0,29.96,ESE,110,14.0,15.0,85,-99.99,,,-99.99,,2013-05-01 01:00:00,
2013-04-30 21:21:00,79.0,74.0,29.96,ESE,110,14.0,15.0,85,-99.99,,,-99.99,,2013-05-01 01:21:00,
2013-04-30 21:31:00,79.0,74.0,29.96,ESE,110,14.0,15.0,85,-99.99,,,-99.99,,2013-05-01 01:31:00,
2013-04-30 21:41:00,79.0,74.0,29.96,ESE,110,14.0,15.0,85,-99.99,,,-99.99,,2013-05-01 01:41:00,
2013-04-30 21:52:00,79.0,74.0,29.96,ESE,110,14.0,15.0,85,-99.99,,,-99.99,,2013-05-01 01:52:00,
2013-04-30 22:00:00,80.0,75.0,29.99,ESE,120,15.0,16.0,87,-99.99,,,-99.99,,2013-05-01 02:00:00,
2013-04-30 22:21:00,80.0,75.0,29.99,ESE,120,15.0,16.0,87,-99.99,,,-99.99,,2013-05-01 02:21:00,
2013-04-30 22:32:00,80.0,75.0,29.99,ESE,120,15.0,16.0,87,-99.99,,,-99.99,,2013-05-01 02:32:00,
2013-04-30 22:42:00,80.0,75.0,29.99,ESE,120,15.0,16.0,87,-99.99,,,-99.99,,2013-05-01 02:42:00,
2013-04-30 22:51:00,80.0,75.0,29.99,ESE,120,15.0,16.0,87,-99.99,,,-99.99,,2013-05-01 02:51:00,
2013-04-30 23:00:00,80.0,75.0,30.00,SE,130,17.0,18.0,87,-99.99,,,-99.99,,2013-05-01 03:00:00,
2013-04-30 23:21:00,80.0,75.0,30.00,SE,130,17.0,18.0,87,-99.99,,,-99.99,,2013-05-01 03:21:00,
2013-04-30 23:32:00,80.0,75.0,30.00,SE,130,17.0,18.0,87,-99.99,,,-99.99,,2013-05-01 03:32:00,
2013-04-30 23:42:00,80.0,75.0,30.00,SE,130,17.0,18.0,87,-99.99,,,-99.99,,2013-05-01 03:42:00,
2013-04-30 23:52:00,80.0,75.0,30.00,SE,130,17.0,18.0,87,-99.99,,,-99.99,,2013-05-01 03:52:00,